createdAt,value
2022-08-26T00:02:23.153Z,21.08
2022-08-26T00:07:44.152Z,21.06
2022-08-26T00:13:06.439Z,20.94
2022-08-26T00:18:27.491Z,21.01
2022-08-26T00:23:51.659Z,20.88
2022-08-26T00:29:13.622Z,20.72
2022-08-26T00:34:35.989Z,20.71
2022-08-26T00:39:57.132Z,20.73
2022-08-26T00:45:22.763Z,20.71
2022-08-26T00:50:50.468Z,20.70
2022-08-26T00:56:20.863Z,20.64
2022-08-26T01:01:43.182Z,20.58
2022-08-26T01:07:06.846Z,20.68
2022-08-26T01:12:32.404Z,20.68
2022-08-26T01:17:53.560Z,20.65
2022-08-26T01:23:15.244Z,20.64
2022-08-26T01:28:39.020Z,20.73
2022-08-26T01:34:05.479Z,20.65
2022-08-26T01:39:26.095Z,20.59
2022-08-26T01:44:51.613Z,20.64
2022-08-26T01:50:27.516Z,20.62
2022-08-26T01:55:53.269Z,20.59
2022-08-26T02:01:14.821Z,20.44
2022-08-26T02:06:39.129Z,20.06
2022-08-26T02:12:01.801Z,20.13
2022-08-26T02:17:29.346Z,20.22
2022-08-26T02:22:51.928Z,20.18
2022-08-26T02:28:14.506Z,20.15
2022-08-26T02:33:35.600Z,20.14
2022-08-26T02:38:56.407Z,20.10
2022-08-26T02:44:17.969Z,20.08
2022-08-26T02:49:40.104Z,20.01
2022-08-26T02:55:05.203Z,20.00
2022-08-26T03:00:26.485Z,19.96
2022-08-26T03:05:47.653Z,19.95
2022-08-26T03:11:08.676Z,20.04
2022-08-26T03:16:36.846Z,20.02
2022-08-26T03:21:58.382Z,19.89
2022-08-26T03:27:19.229Z,19.85
2022-08-26T03:32:41.443Z,19.69
2022-08-26T03:38:03.466Z,19.63
2022-08-26T03:43:26.852Z,19.74
2022-08-26T03:48:47.349Z,19.74
2022-08-26T03:54:08.604Z,19.73
2022-08-26T03:59:29.591Z,19.75
2022-08-26T04:04:50.500Z,19.81
2022-08-26T04:10:14.012Z,19.72
2022-08-26T04:15:35.918Z,19.60
2022-08-26T04:20:57.060Z,19.57
2022-08-26T04:26:20.005Z,19.60
2022-08-26T04:31:41.436Z,19.49
2022-08-26T04:37:02.501Z,19.31
2022-08-26T04:42:26.250Z,19.40
2022-08-26T04:47:47.391Z,19.63
2022-08-26T04:53:08.848Z,19.80
2022-08-26T04:58:30.049Z,19.93
2022-08-26T05:03:51.464Z,19.92
2022-08-26T05:09:15.308Z,19.91
2022-08-26T05:14:36.419Z,19.99
2022-08-26T05:19:57.344Z,19.98
2022-08-26T05:25:18.586Z,19.90
2022-08-26T05:30:40.543Z,20.06
2022-08-26T05:36:07.602Z,20.06
2022-08-26T05:41:34.289Z,20.08
2022-08-26T05:46:57.374Z,20.13
2022-08-26T05:52:19.581Z,20.33
2022-08-26T05:57:42.769Z,20.56
2022-08-26T06:03:04.134Z,20.69
2022-08-26T06:08:25.256Z,20.83
2022-08-26T06:13:47.165Z,21.13
2022-08-26T06:19:11.488Z,21.56
2022-08-26T06:24:51.140Z,21.90
2022-08-26T06:30:12.300Z,22.48
2022-08-26T06:35:38.569Z,22.61
2022-08-26T06:40:59.828Z,22.69
2022-08-26T06:46:22.269Z,23.09
2022-08-26T06:51:43.368Z,23.66
2022-08-26T06:57:04.072Z,23.99
2022-08-26T07:02:25.003Z,24.05
2022-08-26T07:07:49.545Z,24.15
2022-08-26T07:13:11.714Z,24.29
2022-08-26T07:18:35.007Z,24.48
2022-08-26T07:24:01.241Z,24.49
2022-08-26T07:29:22.342Z,24.61
2022-08-26T07:34:46.826Z,24.62
2022-08-26T07:40:08.433Z,24.56
2022-08-26T07:45:30.061Z,24.57
2022-08-26T07:50:51.160Z,24.63
2022-08-26T07:56:14.261Z,24.74
2022-08-26T08:01:35.046Z,24.58
2022-08-26T08:06:59.795Z,24.41
2022-08-26T08:12:21.089Z,24.33
2022-08-26T08:17:46.018Z,24.50
2022-08-26T08:23:07.057Z,24.56
2022-08-26T08:28:28.548Z,24.65
2022-08-26T08:33:49.359Z,24.80
2022-08-26T08:39:12.755Z,24.96
2022-08-26T08:44:40.010Z,24.90
2022-08-26T08:50:20.099Z,24.79
2022-08-26T08:55:52.367Z,24.77
2022-08-26T09:01:25.635Z,24.83
2022-08-26T09:06:49.819Z,24.88
2022-08-26T09:12:20.465Z,24.84
2022-08-26T09:18:31.039Z,24.75
2022-08-26T09:23:53.750Z,24.89
2022-08-26T09:29:32.375Z,24.89
2022-08-26T09:35:00.622Z,24.82
2022-08-26T09:40:22.574Z,24.81
2022-08-26T09:45:50.680Z,24.88
2022-08-26T09:51:26.393Z,24.96
2022-08-26T09:56:47.106Z,25.03
2022-08-26T10:02:27.789Z,24.99
2022-08-26T10:07:51.154Z,25.16
2022-08-26T10:13:32.300Z,25.16
2022-08-26T10:19:00.896Z,25.19
2022-08-26T10:24:28.155Z,24.99
2022-08-26T10:29:54.187Z,24.79
2022-08-26T10:35:17.429Z,24.76
2022-08-26T10:40:49.855Z,24.89
2022-08-26T10:46:19.796Z,25.04
2022-08-26T10:52:12.300Z,25.18
2022-08-26T10:57:57.532Z,25.19
2022-08-26T11:03:50.647Z,25.20
2022-08-26T11:09:11.187Z,25.25
2022-08-26T11:14:42.034Z,25.21
2022-08-26T11:20:24.255Z,25.27
2022-08-26T11:26:09.289Z,25.08
2022-08-26T11:31:30.770Z,24.99
2022-08-26T11:36:56.667Z,25.03
2022-08-26T11:42:42.745Z,25.20
2022-08-26T11:48:33.276Z,25.25
2022-08-26T11:54:17.308Z,25.39
2022-08-26T11:59:51.542Z,25.66
2022-08-26T12:05:17.245Z,25.75
2022-08-26T12:10:38.642Z,25.86
2022-08-26T12:16:00.773Z,26.10
2022-08-26T12:21:29.384Z,26.18
2022-08-26T12:27:14.366Z,26.05
2022-08-26T12:32:57.122Z,26.05
2022-08-26T12:38:20.280Z,26.11
2022-08-26T12:43:44.035Z,26.22
2022-08-26T12:49:05.040Z,26.16
2022-08-26T12:54:46.029Z,26.10
2022-08-26T13:00:37.173Z,26.06
2022-08-26T13:06:15.464Z,26.09
2022-08-26T13:11:39.883Z,25.87
2022-08-26T13:17:00.816Z,25.84
2022-08-26T13:22:26.987Z,26.00
2022-08-26T13:27:47.918Z,26.05
2022-08-26T13:33:08.883Z,26.16
2022-08-26T13:38:33.210Z,26.37
2022-08-26T13:43:54.717Z,26.60
2022-08-26T13:49:15.505Z,26.69
2022-08-26T13:54:36.523Z,26.52
2022-08-26T13:59:59.210Z,26.53
2022-08-26T14:05:19.855Z,26.48
2022-08-26T14:10:40.452Z,26.44
2022-08-26T14:16:04.644Z,26.35
2022-08-26T14:21:26.029Z,26.30
2022-08-26T14:26:48.598Z,26.28
2022-08-26T14:32:16.959Z,26.22
2022-08-26T14:37:42.002Z,26.20
2022-08-26T14:43:03.040Z,26.29
2022-08-26T14:48:24.638Z,26.36
2022-08-26T14:54:03.893Z,26.41
2022-08-26T14:59:27.736Z,26.46
2022-08-26T15:04:48.406Z,25.65
2022-08-26T15:10:13.759Z,24.57
2022-08-26T15:15:34.627Z,24.01
2022-08-26T15:20:55.574Z,23.47
2022-08-26T15:26:17.386Z,23.12
2022-08-26T15:31:38.132Z,22.67
2022-08-26T15:36:58.731Z,22.59
2022-08-26T15:42:21.008Z,22.31
2022-08-26T15:48:00.733Z,22.19
2022-08-26T15:53:24.481Z,21.91
2022-08-26T15:58:45.114Z,21.61
2022-08-26T16:04:08.173Z,21.55
2022-08-26T16:09:30.808Z,21.53
2022-08-26T16:14:52.741Z,21.33
2022-08-26T16:20:13.603Z,21.32
2022-08-26T16:25:34.574Z,21.38
2022-08-26T16:30:55.724Z,21.36
2022-08-26T16:36:17.457Z,21.30
2022-08-26T16:41:38.384Z,21.36
2022-08-26T16:46:58.981Z,21.39
2022-08-26T16:52:20.411Z,21.50
2022-08-26T16:57:43.857Z,21.46
2022-08-26T17:03:06.269Z,21.44
2022-08-26T17:08:28.439Z,21.50
2022-08-26T17:13:50.293Z,21.54
2022-08-26T17:19:11.411Z,21.41
2022-08-26T17:24:34.142Z,21.34
2022-08-26T17:29:54.858Z,21.40
2022-08-26T17:35:16.353Z,21.35
2022-08-26T17:40:37.387Z,21.14
2022-08-26T17:46:06.682Z,21.28
2022-08-26T17:51:28.531Z,21.16
2022-08-26T17:56:49.359Z,21.12
2022-08-26T18:02:10.335Z,21.27
2022-08-26T18:07:31.141Z,21.21
2022-08-26T18:12:53.325Z,21.15
2022-08-26T18:18:16.144Z,21.16
2022-08-26T18:23:36.808Z,21.17
2022-08-26T18:28:58.229Z,20.85
2022-08-26T18:34:19.824Z,20.84
2022-08-26T18:39:40.828Z,20.97
2022-08-26T18:45:08.130Z,21.07
2022-08-26T18:50:30.182Z,21.02
2022-08-26T18:55:51.005Z,20.95
2022-08-26T19:01:13.263Z,20.98
2022-08-26T19:06:35.794Z,21.04
2022-08-26T19:17:22.713Z,21.10
2022-08-26T19:22:43.593Z,21.08
2022-08-26T19:28:04.314Z,21.00
2022-08-26T19:33:28.304Z,20.95
2022-08-26T19:38:50.145Z,20.82
2022-08-26T19:44:34.101Z,20.81
2022-08-26T19:49:56.379Z,20.74
2022-08-26T19:55:20.145Z,20.66
2022-08-26T20:00:42.456Z,20.69
2022-08-26T20:06:05.294Z,20.72
2022-08-26T20:11:26.191Z,20.66
2022-08-26T20:16:47.579Z,20.66
2022-08-26T20:22:08.938Z,20.69
2022-08-26T20:27:35.551Z,20.63
2022-08-26T20:32:59.231Z,20.57
2022-08-26T20:38:21.546Z,20.53
2022-08-26T20:43:42.968Z,20.66
2022-08-26T20:49:05.906Z,20.56
2022-08-26T20:54:29.421Z,20.52
2022-08-26T20:59:50.393Z,20.56
2022-08-26T21:05:11.351Z,20.52
2022-08-26T21:10:32.188Z,20.52
2022-08-26T21:15:58.281Z,20.43
2022-08-26T21:21:19.512Z,20.51
2022-08-26T21:26:46.447Z,20.43
2022-08-26T21:32:07.142Z,20.37
2022-08-26T21:37:28.836Z,20.35
2022-08-26T21:42:49.454Z,20.21
2022-08-26T21:48:10.421Z,20.20
2022-08-26T21:53:31.552Z,20.15
2022-08-26T21:58:53.395Z,20.21
2022-08-26T22:04:14.544Z,20.12
2022-08-26T22:09:35.332Z,19.87
2022-08-26T22:14:55.954Z,19.87
2022-08-26T22:20:16.890Z,19.93
2022-08-26T22:25:38.211Z,19.90
2022-08-26T22:30:59.345Z,19.91
2022-08-26T22:36:22.788Z,19.91
2022-08-26T22:41:45.093Z,19.88
2022-08-26T22:47:06.401Z,19.81
2022-08-26T22:52:27.796Z,19.65
2022-08-26T22:57:48.611Z,19.69
2022-08-26T23:03:09.519Z,19.41
2022-08-26T23:08:30.701Z,19.17
2022-08-26T23:13:51.599Z,19.18
2022-08-26T23:19:14.182Z,19.19
2022-08-26T23:24:35.616Z,19.19
2022-08-26T23:29:56.592Z,19.23
2022-08-26T23:35:21.617Z,19.40
2022-08-26T23:40:42.154Z,19.31
2022-08-26T23:46:03.001Z,19.36
2022-08-26T23:51:42.091Z,19.45
2022-08-26T23:57:02.984Z,19.33
